Lake Crystal, MN (56055)

6:57 PM CDT on June 29, 2015 (GMT -0500)
Engles Farm | | Change Station
CLOSE
Current Station
Personal Weather Station
Location: Lake Crystal, MN
Elevation: 988 ft
Nearby Weather Stations
Active Advisory: Severe Thunderstorm Watch

Elev 988 ft 44.19 °N, 94.26 °W | Updated 7 minutes ago

Clear
Clear
79.3 °F
Feels Like 81 °F
N
1.0
Wind Variable Wind from West
Gusts 5.0 mph

Today
High -- | Low -- °F
--% Chance of Precip.
Yesterday
High -- | Low -- °F
Precip. -- in
5:36 AM 9:04 PM
Waxing Gibbous, 95% visible
Pressure 29.81 in
Visibility 9.0 miles
Clouds Clear
Heat Index 81 °F
Dew Point 66 °F
Humidity 64%
Rainfall 0.00 in
Snow Depth Not available.
UV 2 out of 12
Pollen 4.90 out of 12
Air Quality Not available.
Flu Activity Sporadic
METAR KMKT 292355Z 29009KT 9SM CLR 26/17 A2981 RMK AO1 10270 20260 57007

More Conditions Fewer Conditions

Pressure 29.81 in
Visibility 9.0 miles
Clouds Clear
Heat Index 81 °F
Dew Point 66 °F
Humidity 64%
Rainfall 0.00 in
Snow Depth Not available.
UV 2 out of 12
Pollen 4.90 out of 12
Air Quality Not available.
Flu Activity Sporadic
METAR KMKT 292355Z 29009KT 9SM CLR 26/17 A2981 RMK AO1 10270 20260 57007

More Conditions Fewer Conditions

10-Day Weather Forecast

×

Almanac

Astronomy

Jun. 29, 2015 Rise Set
Actual Time
Civil Twilight
Nautical Twilight
Astronomical Twilight
Moon
Length of Visible Light
Length of Day
Tomorrow will be .
, % of the Moon is Illuminated

Today's Extremes

State Highs State Lows

Community

WunderPhotos

Upload Photos

1,833,887 photos uploaded!

WunderBlogs® & News

Nearby

Air Quality

  Air Quality AQ Index Pollutant
Not available.

Snow Depth

Station Depth Elevation

Earthquake Activity

City Distance Mag. Time & Date
Minimum magnitude displayed is 2.5.

Coastal Water Temperatures

Place Temperature

Stations

Nearby Weather Stations

Station Location Temp. Windchill Dew Point Humidity Wind Precip. Elev Updated Type
                   
Severe Thunderstorm Watch
Statement as of 6:43 PM CDT on June 29, 2015

Severe Thunderstorm Watch 370 remains in effect until 800 PM CDT

MN
. Minnesota counties included are

Anoka Benton Blue Earth
Brown Carver Chisago
Dakota Dodge Faribault
Fillmore Freeborn Goodhue
Hennepin Houston Isanti
Kanabec Le Sueur McLeod
Martin Meeker Mille Lacs
Morrison Mower Nicollet
Olmsted Ramsey Rice
Scott Sherburne Sibley
Stearns Steele Wabasha
Waseca Washington Watonwan
Winona Wright